30AL weather

Med Flight 2 Heliport
Danville, Alabama, United States

Public forecast

Using degrees Fahrenheit for public forecast. Weather courtesy of forecast.io.

Closest aviation weather report (METAR) to Med Flight 2 Heliport

Closest report is Cullman Regional Airport-Folsom Field, 12.7 nm (23.5 km) ESE. Retrieved 2019/10/14 01:35 UTC (18 minutes ago):

KCMD 140135Z AUTO 17004KT 10SM SCT038 SCT050 13/09 A3010 RMK AO2 T01250085

Closest aviation forecast (TAF) to Med Flight 2 Heliport

Closest forecast is Huntsville International Carl T Jones Field, 21.9 nm (40.6 km) NE. Retrieved 2019-10-14 00:24 UTC (1 hour ago):

TAF KHSV 132321Z 1400/1424 24004KT P6SM SCT060 BKN250 FM140500 VRB03KT P6SM FEW250